createdAt,value
2023-04-23T00:00:13.148Z,2.70
2023-04-23T00:00:48.143Z,3.30
2023-04-23T00:01:22.193Z,2.70
2023-04-23T00:01:57.258Z,3.15
2023-04-23T00:02:33.211Z,2.92
2023-04-23T00:03:10.218Z,3.05
2023-04-23T00:03:44.338Z,2.67
2023-04-23T00:04:19.140Z,2.78
2023-04-23T00:04:52.802Z,3.20
2023-04-23T00:05:27.963Z,3.10
2023-04-23T00:06:05.566Z,2.85
2023-04-23T00:06:38.381Z,3.05
2023-04-23T00:07:10.659Z,2.92
2023-04-23T00:07:43.973Z,3.50
2023-04-23T00:08:18.392Z,2.78
2023-04-23T00:08:54.031Z,3.20
2023-04-23T00:09:28.887Z,2.80
2023-04-23T00:10:03.227Z,3.10
2023-04-23T00:10:36.620Z,2.80
2023-04-23T00:11:09.897Z,3.40
2023-04-23T00:11:49.309Z,3.22
2023-04-23T00:12:22.643Z,2.95
2023-04-23T00:12:54.849Z,2.95
2023-04-23T00:13:27.187Z,3.08
2023-04-23T00:14:00.451Z,3.00
2023-04-23T00:14:32.630Z,3.03
2023-04-23T00:15:06.790Z,3.03
2023-04-23T00:15:39.917Z,2.78
2023-04-23T00:16:13.194Z,2.80
2023-04-23T00:16:45.918Z,3.20
2023-04-23T00:17:19.593Z,2.95
2023-04-23T00:17:51.475Z,2.85
2023-04-23T00:18:23.384Z,3.25
2023-04-23T00:18:56.132Z,3.58
2023-04-23T00:19:27.983Z,2.90
2023-04-23T00:20:00.052Z,3.22
2023-04-23T00:20:34.099Z,2.88
2023-04-23T00:21:06.160Z,3.05
2023-04-23T00:21:38.014Z,2.70
2023-04-23T00:22:09.866Z,3.20
2023-04-23T00:22:42.823Z,3.10
2023-04-23T00:23:14.639Z,3.35
2023-04-23T00:23:46.697Z,3.05
2023-04-23T00:24:19.526Z,3.47
2023-04-23T00:24:51.419Z,2.90
2023-04-23T00:25:23.216Z,3.08
2023-04-23T00:25:55.977Z,2.88
2023-04-23T00:26:27.830Z,2.90
2023-04-23T00:27:01.438Z,3.05
2023-04-23T00:27:33.263Z,3.33
2023-04-23T00:28:06.327Z,2.72
2023-04-23T00:28:38.325Z,3.05
2023-04-23T00:29:10.121Z,2.55
2023-04-23T00:29:43.221Z,3.63
2023-04-23T00:30:16.608Z,3.20
2023-04-23T00:30:48.526Z,3.55
2023-04-23T00:31:22.465Z,3.00
2023-04-23T00:31:54.328Z,3.63
2023-04-23T00:32:26.235Z,2.78
2023-04-23T00:32:58.100Z,2.53
2023-04-23T00:33:31.040Z,3.00
2023-04-23T00:34:03.138Z,2.92
2023-04-23T00:34:34.984Z,3.50
2023-04-23T00:35:08.783Z,3.45
2023-04-23T00:35:40.758Z,3.53
2023-04-23T00:36:12.548Z,2.95
2023-04-23T00:36:45.327Z,3.08
2023-04-23T00:37:17.187Z,3.50
2023-04-23T00:37:49.029Z,3.53
2023-04-23T00:38:21.914Z,3.20
2023-04-23T00:38:53.734Z,2.50
2023-04-23T00:39:25.631Z,3.05
2023-04-23T00:39:57.535Z,3.40
2023-04-23T00:40:30.395Z,3.30
2023-04-23T00:41:02.321Z,2.90
2023-04-23T00:41:34.616Z,3.95
2023-04-23T00:42:12.246Z,3.17
2023-04-23T00:42:45.675Z,3.50
2023-04-23T00:43:17.662Z,3.08
2023-04-23T00:43:52.712Z,3.10
2023-04-23T00:44:24.529Z,3.40
2023-04-23T00:44:57.671Z,2.85
2023-04-23T00:45:29.554Z,3.17
2023-04-23T00:46:02.647Z,3.30
2023-04-23T00:46:35.519Z,2.60
2023-04-23T00:47:07.924Z,2.70
2023-04-23T00:47:41.128Z,2.90
2023-04-23T00:48:14.303Z,3.83
2023-04-23T00:48:47.351Z,3.17
2023-04-23T00:49:19.628Z,2.90
2023-04-23T00:49:53.123Z,3.95
2023-04-23T00:50:26.194Z,3.53
2023-04-23T00:50:59.887Z,2.90
2023-04-23T00:51:32.096Z,2.80
2023-04-23T00:52:05.826Z,3.00
2023-04-23T00:52:39.068Z,2.85
2023-04-23T00:53:11.896Z,3.00
2023-04-23T00:53:43.729Z,2.88
2023-04-23T00:54:15.570Z,3.88
2023-04-23T00:54:47.447Z,2.78
2023-04-23T00:55:21.062Z,3.70
2023-04-23T00:55:53.276Z,3.50
2023-04-23T00:56:26.590Z,3.70
2023-04-23T00:57:00.424Z,3.03
2023-04-23T00:57:33.998Z,3.20
2023-04-23T00:58:06.682Z,2.55
2023-04-23T00:58:40.440Z,3.17
2023-04-23T00:59:12.312Z,3.28
2023-04-23T00:59:44.756Z,3.13
2023-04-23T01:00:18.716Z,2.70
2023-04-23T01:00:52.461Z,3.72
2023-04-23T01:01:25.976Z,3.38
2023-04-23T01:01:59.567Z,3.15
2023-04-23T01:02:32.053Z,3.40
2023-04-23T01:03:05.094Z,3.72
2023-04-23T01:03:39.287Z,2.63
2023-04-23T01:04:13.757Z,3.30
2023-04-23T01:04:45.673Z,3.05
2023-04-23T01:05:19.447Z,3.30
2023-04-23T01:05:52.814Z,3.00
2023-04-23T01:06:25.230Z,3.00
2023-04-23T01:06:59.055Z,3.40
2023-04-23T01:07:31.860Z,3.33
2023-04-23T01:08:04.838Z,3.47
2023-04-23T01:08:37.352Z,3.20
2023-04-23T01:09:09.861Z,3.25
2023-04-23T01:09:42.893Z,2.60
2023-04-23T01:10:15.055Z,2.72
2023-04-23T01:10:48.326Z,3.50
2023-04-23T01:11:22.274Z,3.20
2023-04-23T01:11:54.268Z,3.10
2023-04-23T01:12:26.566Z,3.72
2023-04-23T01:13:01.248Z,2.85
2023-04-23T01:13:33.294Z,3.47
2023-04-23T01:14:05.790Z,3.08
2023-04-23T01:14:39.427Z,2.78
2023-04-23T01:15:11.661Z,2.92
2023-04-23T01:15:44.798Z,2.90
2023-04-23T01:16:17.750Z,3.70
2023-04-23T01:16:50.196Z,3.28
2023-04-23T01:17:22.766Z,2.85
2023-04-23T01:17:57.146Z,3.13
2023-04-23T01:18:29.730Z,2.97
2023-04-23T01:19:02.204Z,3.30
2023-04-23T01:19:35.035Z,2.50
2023-04-23T01:20:08.417Z,2.97
2023-04-23T01:20:40.317Z,3.35
2023-04-23T01:21:15.004Z,3.10
2023-04-23T01:21:49.664Z,2.70
2023-04-23T01:22:23.071Z,3.15
2023-04-23T01:22:56.159Z,2.80
2023-04-23T01:23:28.067Z,2.92
2023-04-23T01:24:00.140Z,2.50
2023-04-23T01:24:32.287Z,2.90
2023-04-23T01:25:06.044Z,3.33
2023-04-23T01:25:38.034Z,2.70
2023-04-23T01:26:10.786Z,3.42
2023-04-23T01:26:43.732Z,3.17
2023-04-23T01:27:16.092Z,2.97
2023-04-23T01:27:48.339Z,2.75
2023-04-23T01:28:20.587Z,2.88
2023-04-23T01:28:54.168Z,2.67
2023-04-23T01:29:26.476Z,3.28
2023-04-23T01:29:58.821Z,3.13
2023-04-23T01:30:31.924Z,3.90
2023-04-23T01:31:04.089Z,3.80
2023-04-23T01:31:36.606Z,2.70
2023-04-23T01:32:09.620Z,2.63
2023-04-23T01:32:41.861Z,4.38
2023-04-23T01:33:14.961Z,2.85
2023-04-23T01:33:47.901Z,2.85
2023-04-23T01:34:20.965Z,2.78
2023-04-23T01:34:54.632Z,3.30
2023-04-23T01:35:26.822Z,3.10
2023-04-23T01:36:00.888Z,3.03
2023-04-23T01:36:33.968Z,3.00
2023-04-23T01:37:06.060Z,3.30
2023-04-23T01:37:40.304Z,3.00
2023-04-23T01:38:15.673Z,3.50
2023-04-23T01:38:47.540Z,2.92
2023-04-23T01:39:19.632Z,2.50
2023-04-23T01:39:52.893Z,3.58
2023-04-23T01:40:24.765Z,2.65
2023-04-23T01:40:56.583Z,2.97
2023-04-23T01:41:29.512Z,3.78
2023-04-23T01:42:02.120Z,2.92
2023-04-23T01:42:33.996Z,3.30
2023-04-23T01:43:08.619Z,3.05
2023-04-23T01:43:41.833Z,3.30
2023-04-23T01:44:13.734Z,2.92
2023-04-23T01:44:46.564Z,3.00
2023-04-23T01:45:19.948Z,2.65
2023-04-23T01:45:52.682Z,2.83
2023-04-23T01:46:25.043Z,3.63
2023-04-23T01:46:58.514Z,2.90
2023-04-23T01:47:30.446Z,3.55
2023-04-23T01:48:02.693Z,3.17
2023-04-23T01:48:35.618Z,3.88
2023-04-23T01:49:08.127Z,2.90
2023-04-23T01:49:40.635Z,2.90
2023-04-23T01:50:13.672Z,3.03
2023-04-23T01:50:45.526Z,3.08
2023-04-23T01:51:17.597Z,3.30
2023-04-23T01:51:50.450Z,2.92
2023-04-23T01:52:22.262Z,2.83
2023-04-23T01:52:55.483Z,2.75
2023-04-23T01:53:28.316Z,2.80
2023-04-23T01:54:00.172Z,3.05
2023-04-23T01:54:32.094Z,3.75
2023-04-23T01:55:05.389Z,3.22
2023-04-23T01:55:38.486Z,2.97
2023-04-23T01:56:10.892Z,2.80
2023-04-23T01:56:42.696Z,2.83
2023-04-23T01:57:15.601Z,3.03
2023-04-23T01:57:47.522Z,3.00
2023-04-23T01:58:19.448Z,3.17
2023-04-23T01:58:52.247Z,2.78
2023-04-23T01:59:24.071Z,3.20
2023-04-23T02:00:01.097Z,2.70
2023-04-23T02:00:33.891Z,2.88
2023-04-23T02:01:05.941Z,3.22
2023-04-23T02:01:45.524Z,2.90
2023-04-23T02:02:17.476Z,2.80
2023-04-23T02:02:51.569Z,3.50
2023-04-23T02:03:23.678Z,2.97
2023-04-23T02:03:55.662Z,3.10
2023-04-23T02:04:28.697Z,3.22
2023-04-23T02:05:04.234Z,3.33
2023-04-23T02:05:36.511Z,3.15
2023-04-23T02:06:10.009Z,3.35
2023-04-23T02:06:43.217Z,2.90
2023-04-23T02:07:15.166Z,3.55
2023-04-23T02:07:49.253Z,2.70
2023-04-23T02:08:22.704Z,2.95
2023-04-23T02:08:54.531Z,2.70
2023-04-23T02:09:27.338Z,3.10
2023-04-23T02:09:59.337Z,3.00
2023-04-23T02:10:31.748Z,2.92
2023-04-23T02:11:04.734Z,3.65
2023-04-23T02:11:36.572Z,3.90
2023-04-23T02:12:08.501Z,3.13
2023-04-23T02:12:41.109Z,2.80
2023-04-23T02:13:14.568Z,3.20
2023-04-23T02:13:46.404Z,3.55
2023-04-23T02:14:18.243Z,4.15
2023-04-23T02:14:50.800Z,4.18
2023-04-23T02:15:23.602Z,3.90
2023-04-23T02:15:55.463Z,3.58
2023-04-23T02:16:28.343Z,3.70
2023-04-23T02:17:01.257Z,2.63
2023-04-23T02:17:33.243Z,3.00
2023-04-23T02:18:05.720Z,3.90
2023-04-23T02:18:38.520Z,3.85
2023-04-23T02:19:10.499Z,3.60
2023-04-23T02:19:42.291Z,3.60
2023-04-23T02:20:15.095Z,3.40
2023-04-23T02:20:47.032Z,3.30
2023-04-23T02:21:18.822Z,3.20
2023-04-23T02:21:51.629Z,3.40
2023-04-23T02:22:25.137Z,3.20
2023-04-23T02:22:57.013Z,4.60
2023-04-23T02:23:30.496Z,3.28
2023-04-23T02:24:05.172Z,3.75
2023-04-23T02:24:38.712Z,3.00
2023-04-23T02:25:11.206Z,3.40
2023-04-23T02:25:44.166Z,3.33
2023-04-23T02:26:15.951Z,3.78
2023-04-23T02:26:48.773Z,3.50
2023-04-23T02:27:21.837Z,3.55
2023-04-23T02:27:53.603Z,3.10
2023-04-23T02:28:25.379Z,3.38
2023-04-23T02:28:58.129Z,2.75
2023-04-23T02:29:29.905Z,3.13
2023-04-23T02:30:01.929Z,3.20
2023-04-23T02:30:33.915Z,3.22
2023-04-23T02:31:06.813Z,3.88
2023-04-23T02:31:38.893Z,3.40
2023-04-23T02:32:11.126Z,3.40
2023-04-23T02:32:44.054Z,3.65
2023-04-23T02:33:16.553Z,3.90
2023-04-23T02:33:48.793Z,3.60
2023-04-23T02:34:21.604Z,3.42
2023-04-23T02:34:53.528Z,3.20
2023-04-23T02:35:25.806Z,3.45
2023-04-23T02:35:57.645Z,3.60
2023-04-23T02:36:32.356Z,3.30
2023-04-23T02:37:04.943Z,3.53
2023-04-23T02:37:37.388Z,3.78
2023-04-23T02:38:09.264Z,3.53
2023-04-23T02:38:44.809Z,3.55
2023-04-23T02:39:17.046Z,4.35
2023-04-23T02:39:48.857Z,3.15
2023-04-23T02:40:21.860Z,4.00
2023-04-23T02:40:53.658Z,3.45
2023-04-23T02:41:25.544Z,3.55
2023-04-23T02:41:58.282Z,3.50
2023-04-23T02:42:31.042Z,3.63
2023-04-23T02:43:02.960Z,3.30
2023-04-23T02:43:34.760Z,3.45
2023-04-23T02:44:07.536Z,3.53
2023-04-23T02:44:39.534Z,4.28
2023-04-23T02:45:12.045Z,3.67
2023-04-23T02:45:45.204Z,3.85
2023-04-23T02:46:17.074Z,4.10
2023-04-23T02:46:48.958Z,2.90
2023-04-23T02:47:20.813Z,3.50
2023-04-23T02:47:54.309Z,3.40
2023-04-23T02:48:27.210Z,3.90
2023-04-23T02:48:59.075Z,3.03
2023-04-23T02:49:31.830Z,3.33
2023-04-23T02:50:06.080Z,3.60
2023-04-23T02:50:39.031Z,4.25
2023-04-23T02:51:14.303Z,3.47
2023-04-23T02:51:46.176Z,3.40
2023-04-23T02:52:18.098Z,3.50
2023-04-23T02:52:50.845Z,3.40
2023-04-23T02:53:22.619Z,3.28
2023-04-23T02:53:55.778Z,3.60
2023-04-23T02:54:27.597Z,3.25
2023-04-23T02:55:01.751Z,3.40
2023-04-23T02:55:33.568Z,4.28
2023-04-23T02:56:05.684Z,3.03
2023-04-23T02:56:38.581Z,3.10
2023-04-23T02:57:10.513Z,3.35
2023-04-23T02:57:42.464Z,3.95
2023-04-23T02:58:15.244Z,2.70
2023-04-23T02:58:47.059Z,4.20
2023-04-23T02:59:18.850Z,3.20
2023-04-23T02:59:51.711Z,3.63
2023-04-23T03:00:23.605Z,3.72
2023-04-23T03:00:55.918Z,2.80
2023-04-23T03:01:28.771Z,3.65
2023-04-23T03:02:00.961Z,3.88
2023-04-23T03:02:33.095Z,3.33
2023-04-23T03:03:06.296Z,4.05
2023-04-23T03:03:38.668Z,3.35
2023-04-23T03:04:10.941Z,3.38
2023-04-23T03:04:43.931Z,3.85
2023-04-23T03:05:16.121Z,3.75
2023-04-23T03:05:48.201Z,2.92
2023-04-23T03:06:20.172Z,3.72
2023-04-23T03:06:52.961Z,3.40
2023-04-23T03:07:24.746Z,3.75
2023-04-23T03:07:56.573Z,4.10
2023-04-23T03:08:28.648Z,3.45
2023-04-23T03:09:03.013Z,3.55
2023-04-23T03:09:34.820Z,3.47
2023-04-23T03:10:08.206Z,3.08
2023-04-23T03:10:41.004Z,3.53
2023-04-23T03:11:12.830Z,4.18
2023-04-23T03:11:44.715Z,3.78
2023-04-23T03:12:18.182Z,3.30
2023-04-23T03:12:49.999Z,3.50
2023-04-23T03:13:21.860Z,3.45
2023-04-23T03:13:53.721Z,3.60
2023-04-23T03:14:26.535Z,3.20
2023-04-23T03:14:58.373Z,4.57
2023-04-23T03:15:30.422Z,3.28
2023-04-23T03:16:03.289Z,2.95
2023-04-23T03:16:35.306Z,3.75
2023-04-23T03:17:07.177Z,3.67
2023-04-23T03:17:39.093Z,3.42
2023-04-23T03:18:12.007Z,3.10
2023-04-23T03:18:43.864Z,3.28
2023-04-23T03:19:15.752Z,3.40
2023-04-23T03:19:48.713Z,3.30
2023-04-23T03:20:20.599Z,3.50
2023-04-23T03:20:52.405Z,3.60
2023-04-23T03:21:24.247Z,3.53
2023-04-23T03:21:57.060Z,4.32
2023-04-23T03:22:28.901Z,3.28
2023-04-23T03:23:00.841Z,3.15
2023-04-23T03:23:33.804Z,3.70
2023-04-23T03:24:07.844Z,3.25
2023-04-23T03:24:39.934Z,3.13
2023-04-23T03:25:12.441Z,3.03
2023-04-23T03:25:45.258Z,3.08
2023-04-23T03:26:17.118Z,2.95
2023-04-23T03:26:49.020Z,3.10
2023-04-23T03:27:21.831Z,3.67
2023-04-23T03:27:53.951Z,3.03
2023-04-23T03:28:25.827Z,3.85
2023-04-23T03:28:58.636Z,3.00
2023-04-23T03:29:30.519Z,3.10
2023-04-23T03:30:02.365Z,3.58
2023-04-23T03:30:35.497Z,2.97
2023-04-23T03:31:07.383Z,3.20
2023-04-23T03:31:39.264Z,3.10
2023-04-23T03:32:11.128Z,3.05
2023-04-23T03:32:43.913Z,2.95
2023-04-23T03:33:15.932Z,3.55
2023-04-23T03:33:47.759Z,3.42
2023-04-23T03:34:19.578Z,3.10
2023-04-23T03:34:52.420Z,3.42
2023-04-23T03:35:24.995Z,3.30
2023-04-23T03:35:56.856Z,3.60
2023-04-23T03:36:29.704Z,2.67
2023-04-23T03:37:01.543Z,3.40
2023-04-23T03:37:33.444Z,3.00
2023-04-23T03:38:06.307Z,3.13
2023-04-23T03:38:38.705Z,3.40
2023-04-23T03:39:11.985Z,2.65
2023-04-23T03:39:44.824Z,2.85
2023-04-23T03:40:16.796Z,2.90
2023-04-23T03:40:48.792Z,2.55
2023-04-23T03:41:21.640Z,2.85
2023-04-23T03:41:53.492Z,3.00
2023-04-23T03:42:25.327Z,3.15
2023-04-23T03:42:58.765Z,2.97
2023-04-23T03:43:30.741Z,3.00
2023-04-23T03:44:02.826Z,3.50
2023-04-23T03:44:35.646Z,3.28
2023-04-23T03:45:08.804Z,3.72
2023-04-23T03:45:40.633Z,2.92
2023-04-23T03:46:13.496Z,3.45
2023-04-23T03:46:45.363Z,3.40
2023-04-23T03:47:17.182Z,3.30
2023-04-23T03:47:50.118Z,2.92
2023-04-23T03:48:21.954Z,3.28
2023-04-23T03:48:53.799Z,3.10
2023-04-23T03:49:27.786Z,3.53
2023-04-23T03:49:59.586Z,3.45
2023-04-23T03:50:34.281Z,3.60
2023-04-23T03:51:07.301Z,3.20
2023-04-23T03:51:39.162Z,3.85
2023-04-23T03:52:10.993Z,3.10
2023-04-23T03:52:44.100Z,3.80
2023-04-23T03:53:17.629Z,4.50
2023-04-23T03:53:49.700Z,5.10
2023-04-23T03:54:25.694Z,3.58
2023-04-23T03:54:57.834Z,3.47
2023-04-23T03:55:29.762Z,3.47
2023-04-23T03:56:02.573Z,3.05
2023-04-23T03:56:34.399Z,3.85
2023-04-23T03:57:06.537Z,3.22
2023-04-23T03:57:39.500Z,3.15
2023-04-23T03:58:11.905Z,3.33
2023-04-23T03:58:43.732Z,3.50
2023-04-23T03:59:16.557Z,3.45
2023-04-23T03:59:48.387Z,2.78
2023-04-23T04:00:20.668Z,4.10
2023-04-23T04:00:54.324Z,3.75
2023-04-23T04:01:26.322Z,3.70
2023-04-23T04:01:58.405Z,3.33
2023-04-23T04:02:31.398Z,4.10
2023-04-23T04:03:04.286Z,3.85
2023-04-23T04:03:36.595Z,3.50
2023-04-23T04:04:08.831Z,3.30
2023-04-23T04:04:43.180Z,3.25
2023-04-23T04:05:16.020Z,3.65
2023-04-23T04:05:48.234Z,3.40
2023-04-23T04:06:21.141Z,3.33
2023-04-23T04:06:52.970Z,3.65
2023-04-23T04:07:24.832Z,3.20
2023-04-23T04:07:57.652Z,3.28
2023-04-23T04:08:29.706Z,3.42
2023-04-23T04:09:01.783Z,3.30
2023-04-23T04:09:35.939Z,3.08
2023-04-23T04:10:08.368Z,3.55
2023-04-23T04:10:40.905Z,3.60
2023-04-23T04:11:13.766Z,2.95
2023-04-23T04:11:45.640Z,2.90
2023-04-23T04:12:17.531Z,3.30
2023-04-23T04:12:50.350Z,3.10
2023-04-23T04:13:22.490Z,3.30
2023-04-23T04:13:54.339Z,3.60
2023-04-23T04:14:26.183Z,3.30
2023-04-23T04:14:59.080Z,3.20
2023-04-23T04:15:32.276Z,3.72
2023-04-23T04:16:04.629Z,3.20
2023-04-23T04:16:36.596Z,2.97
2023-04-23T04:17:09.450Z,3.65
2023-04-23T04:17:41.330Z,2.80
2023-04-23T04:18:13.256Z,3.22
2023-04-23T04:18:45.212Z,3.17
2023-04-23T04:19:18.023Z,3.60
2023-04-23T04:19:49.856Z,3.75
2023-04-23T04:20:21.697Z,3.67
2023-04-23T04:20:55.058Z,3.20
2023-04-23T04:21:28.184Z,3.20
2023-04-23T04:22:02.442Z,3.10
2023-04-23T04:22:35.413Z,3.13
2023-04-23T04:23:07.235Z,3.65
2023-04-23T04:23:39.859Z,3.50
2023-04-23T04:24:12.684Z,4.35
2023-04-23T04:24:47.402Z,3.40
2023-04-23T04:25:22.108Z,3.40
2023-04-23T04:25:56.404Z,4.00
2023-04-23T04:26:28.638Z,3.17
2023-04-23T04:27:01.624Z,2.95
2023-04-23T04:27:34.492Z,3.17
2023-04-23T04:28:07.916Z,3.38
2023-04-23T04:28:40.847Z,3.03
2023-04-23T04:29:12.662Z,2.65
2023-04-23T04:29:44.531Z,2.92
2023-04-23T04:30:17.452Z,3.00
2023-04-23T04:30:50.188Z,3.30
2023-04-23T04:31:22.353Z,3.60
2023-04-23T04:31:54.642Z,3.33
2023-04-23T04:32:27.575Z,3.80
2023-04-23T04:32:59.929Z,3.83
2023-04-23T04:33:32.875Z,3.40
2023-04-23T04:34:07.299Z,3.15
2023-04-23T04:34:39.921Z,3.03
2023-04-23T04:35:14.123Z,3.50
2023-04-23T04:35:48.841Z,2.95
2023-04-23T04:36:20.786Z,3.65
2023-04-23T04:36:53.809Z,3.72
2023-04-23T04:37:26.375Z,3.60
2023-04-23T04:37:59.938Z,3.55
2023-04-23T04:38:31.815Z,3.30
2023-04-23T04:39:04.628Z,4.07
2023-04-23T04:39:36.454Z,3.00
2023-04-23T04:40:12.537Z,3.00
2023-04-23T04:40:44.480Z,3.30
2023-04-23T04:41:16.363Z,4.05
2023-04-23T04:41:48.419Z,3.60
2023-04-23T04:42:21.392Z,3.40
2023-04-23T04:42:55.045Z,3.20
2023-04-23T04:43:27.028Z,4.13
2023-04-23T04:44:00.071Z,3.92
2023-04-23T04:44:32.173Z,3.90
2023-04-23T04:45:04.864Z,3.45
2023-04-23T04:45:37.736Z,3.58
2023-04-23T04:46:11.714Z,3.65
2023-04-23T04:46:43.640Z,3.60
2023-04-23T04:47:16.319Z,3.60
2023-04-23T04:47:49.292Z,3.88
2023-04-23T04:48:21.727Z,3.92
2023-04-23T04:48:54.100Z,3.15
2023-04-23T04:49:26.988Z,4.10
2023-04-23T04:50:00.371Z,4.05
2023-04-23T04:50:32.287Z,3.80
2023-04-23T04:51:05.465Z,3.70
2023-04-23T04:51:37.990Z,3.80
2023-04-23T04:52:09.832Z,3.80
2023-04-23T04:52:42.695Z,4.50
2023-04-23T04:53:14.684Z,4.32
2023-04-23T04:53:46.548Z,3.80
2023-04-23T04:54:19.426Z,3.58
2023-04-23T04:54:51.408Z,3.83
2023-04-23T04:55:24.628Z,3.97
2023-04-23T04:55:57.508Z,3.88
2023-04-23T04:56:29.661Z,3.80
2023-04-23T04:57:02.276Z,3.03
2023-04-23T04:57:35.235Z,4.13
2023-04-23T04:58:07.124Z,4.45
2023-04-23T04:58:38.971Z,3.85
2023-04-23T04:59:11.833Z,4.50
2023-04-23T04:59:43.968Z,4.53
2023-04-23T05:00:24.236Z,3.80
2023-04-23T05:00:57.254Z,4.07
2023-04-23T05:01:29.704Z,4.28
2023-04-23T05:02:01.868Z,4.28
2023-04-23T05:02:34.861Z,3.85
2023-04-23T05:03:07.661Z,3.85
2023-04-23T05:03:39.849Z,4.22
2023-04-23T05:04:12.980Z,4.70
2023-04-23T05:04:44.996Z,4.00
2023-04-23T05:05:17.318Z,4.40
2023-04-23T05:05:50.172Z,3.67
2023-04-23T05:06:22.156Z,4.35
2023-04-23T05:06:54.040Z,4.53
2023-04-23T05:07:27.056Z,4.45
2023-04-23T05:07:59.340Z,4.70
2023-04-23T05:08:31.542Z,4.57
2023-04-23T05:09:05.048Z,4.40
2023-04-23T05:09:36.901Z,4.28
2023-04-23T05:10:09.589Z,4.22
2023-04-23T05:10:43.988Z,5.95
2023-04-23T05:11:16.977Z,4.60
2023-04-23T05:11:49.014Z,4.00
2023-04-23T05:12:21.853Z,4.32
2023-04-23T05:12:53.705Z,4.10
2023-04-23T05:13:25.601Z,4.40
2023-04-23T05:13:58.458Z,4.65
2023-04-23T05:14:30.339Z,3.80
2023-04-23T05:15:02.316Z,4.18
2023-04-23T05:15:35.170Z,3.85
2023-04-23T05:16:07.126Z,3.78
2023-04-23T05:16:39.004Z,4.25
2023-04-23T05:17:11.908Z,4.15
2023-04-23T05:17:44.360Z,4.97
2023-04-23T05:18:16.268Z,4.70
2023-04-23T05:18:49.130Z,3.90
2023-04-23T05:19:20.984Z,4.55
2023-04-23T05:19:52.855Z,4.65
2023-04-23T05:20:25.958Z,4.20
2023-04-23T05:20:57.974Z,4.43
2023-04-23T05:21:30.012Z,4.40
2023-04-23T05:22:03.748Z,3.92
2023-04-23T05:22:35.752Z,4.60
2023-04-23T05:23:07.637Z,4.05
2023-04-23T05:23:40.526Z,4.38
2023-04-23T05:24:12.433Z,5.85
2023-04-23T05:24:45.312Z,4.25
2023-04-23T05:25:18.312Z,5.28
2023-04-23T05:25:54.329Z,3.90
2023-04-23T05:26:26.453Z,4.55
2023-04-23T05:26:59.295Z,3.72
2023-04-23T05:27:31.110Z,5.25
2023-04-23T05:28:02.957Z,4.22
2023-04-23T05:28:35.794Z,4.45
2023-04-23T05:29:07.692Z,4.60
2023-04-23T05:29:39.522Z,3.90
2023-04-23T05:30:12.825Z,4.43
2023-04-23T05:30:44.795Z,4.60
2023-04-23T05:31:17.807Z,4.40
2023-04-23T05:31:49.701Z,4.72
2023-04-23T05:32:24.657Z,4.70
2023-04-23T05:32:57.670Z,4.97
2023-04-23T05:33:33.355Z,4.55
2023-04-23T05:34:09.208Z,4.75
2023-04-23T05:34:41.493Z,5.05
2023-04-23T05:35:13.712Z,5.35
2023-04-23T05:35:45.543Z,5.28
2023-04-23T05:36:18.561Z,4.63
2023-04-23T05:36:50.422Z,4.43
2023-04-23T05:37:22.561Z,4.85
2023-04-23T05:37:55.433Z,4.72
2023-04-23T05:38:27.298Z,5.00
2023-04-23T05:38:59.163Z,4.85
2023-04-23T05:39:32.042Z,5.18
2023-04-23T05:40:06.484Z,5.13
2023-04-23T05:40:38.737Z,4.40
2023-04-23T05:41:13.019Z,4.20
2023-04-23T05:41:44.884Z,5.20
2023-04-23T05:42:16.836Z,5.57
2023-04-23T05:42:50.031Z,4.95
2023-04-23T05:43:22.018Z,4.95
2023-04-23T05:43:53.847Z,5.13
2023-04-23T05:44:26.689Z,4.63
2023-04-23T05:44:58.544Z,5.15
2023-04-23T05:45:30.463Z,4.50
2023-04-23T05:46:04.553Z,4.50
2023-04-23T05:46:36.658Z,4.72
2023-04-23T05:47:10.030Z,5.07
2023-04-23T05:47:42.879Z,4.93
2023-04-23T05:48:15.073Z,5.55
2023-04-23T05:48:46.945Z,4.95
2023-04-23T05:49:19.748Z,4.45
2023-04-23T05:49:51.903Z,5.07
2023-04-23T05:50:23.832Z,4.22
2023-04-23T05:50:56.805Z,5.13
2023-04-23T05:51:29.040Z,5.43
2023-04-23T05:52:02.699Z,5.13
2023-04-23T05:52:37.268Z,5.50
2023-04-23T05:53:09.228Z,4.75
2023-04-23T05:53:42.105Z,4.95
2023-04-23T05:54:13.976Z,5.00
2023-04-23T05:54:45.841Z,4.93
2023-04-23T05:55:20.452Z,5.10
2023-04-23T05:55:52.429Z,5.00
2023-04-23T05:56:25.702Z,4.95
2023-04-23T05:56:58.652Z,5.22
2023-04-23T05:57:30.498Z,5.30
2023-04-23T05:58:03.433Z,5.03
2023-04-23T05:58:35.375Z,5.35
2023-04-23T05:59:07.423Z,4.70
2023-04-23T05:59:40.224Z,5.38
2023-04-23T06:00:13.175Z,5.00
2023-04-23T06:00:45.408Z,4.70
2023-04-23T06:01:18.439Z,4.82
2023-04-23T06:01:50.688Z,5.95
2023-04-23T06:02:24.734Z,4.90
2023-04-23T06:02:58.093Z,5.50
2023-04-23T06:03:30.720Z,4.85
2023-04-23T06:04:02.964Z,6.45
2023-04-23T06:04:36.257Z,5.25
2023-04-23T06:05:09.722Z,5.55
2023-04-23T06:05:43.309Z,5.60
2023-04-23T06:06:15.218Z,6.40
2023-04-23T06:06:47.078Z,5.00
2023-04-23T06:07:19.935Z,6.10
2023-04-23T06:07:51.795Z,4.30
2023-04-23T06:08:25.026Z,5.25
2023-04-23T06:08:58.179Z,5.43
2023-04-23T06:09:30.055Z,4.70
2023-04-23T06:10:02.006Z,5.22
2023-04-23T06:10:34.883Z,5.35
2023-04-23T06:11:07.721Z,5.07
2023-04-23T06:11:40.991Z,5.22
2023-04-23T06:12:12.951Z,5.72
2023-04-23T06:12:45.833Z,5.55
2023-04-23T06:13:17.779Z,5.53
2023-04-23T06:13:49.655Z,5.35
2023-04-23T06:14:22.527Z,6.10
2023-04-23T06:14:54.727Z,5.47
2023-04-23T06:15:27.624Z,5.50
2023-04-23T06:15:59.944Z,6.20
2023-04-23T06:16:31.843Z,7.78
2023-04-23T06:17:04.857Z,6.15
2023-04-23T06:17:37.225Z,5.85
2023-04-23T06:18:10.389Z,5.88
2023-04-23T06:18:42.417Z,5.78
2023-04-23T06:19:14.268Z,5.50
2023-04-23T06:19:47.086Z,7.05
2023-04-23T06:20:19.455Z,6.03
2023-04-23T06:20:51.512Z,6.15
2023-04-23T06:21:24.623Z,5.60
2023-04-23T06:21:56.532Z,4.85
2023-04-23T06:22:28.431Z,5.88
2023-04-23T06:23:02.631Z,6.10
2023-04-23T06:23:34.910Z,5.80
2023-04-23T06:24:08.013Z,5.50
2023-04-23T06:24:41.085Z,5.50
2023-04-23T06:25:13.166Z,5.47
2023-04-23T06:25:45.122Z,5.70
2023-04-23T06:26:18.450Z,6.28
2023-04-23T06:26:51.626Z,5.43
2023-04-23T06:27:23.483Z,5.10
2023-04-23T06:27:57.811Z,5.93
2023-04-23T06:28:29.684Z,5.47
2023-04-23T06:29:01.543Z,6.00
2023-04-23T06:29:34.396Z,6.65
2023-04-23T06:30:07.556Z,5.93
2023-04-23T06:30:39.435Z,6.15
2023-04-23T06:31:12.635Z,5.80
2023-04-23T06:31:44.749Z,6.20
2023-04-23T06:32:19.024Z,5.78
2023-04-23T06:32:53.613Z,5.55
2023-04-23T06:33:25.630Z,5.53
2023-04-23T06:33:57.444Z,6.05
2023-04-23T06:34:30.289Z,5.35
2023-04-23T06:35:02.607Z,5.55
2023-04-23T06:35:34.825Z,5.75
2023-04-23T06:36:10.830Z,5.55
2023-04-23T06:36:43.639Z,6.05
2023-04-23T06:37:15.586Z,5.63
2023-04-23T06:37:48.485Z,5.63
2023-04-23T06:38:22.841Z,6.18
2023-04-23T06:38:54.747Z,5.55
2023-04-23T06:39:27.598Z,5.55
2023-04-23T06:39:59.572Z,5.35
2023-04-23T06:40:31.824Z,5.10
2023-04-23T06:41:04.909Z,5.60
2023-04-23T06:41:36.830Z,4.82
2023-04-23T06:42:10.295Z,5.35
2023-04-23T06:42:43.292Z,6.82
2023-04-23T06:43:15.164Z,5.47
2023-04-23T06:43:48.231Z,5.43
2023-04-23T06:44:21.082Z,5.35
2023-04-23T06:44:52.988Z,5.97
2023-04-23T06:45:24.895Z,6.03
2023-04-23T06:45:57.788Z,6.63
2023-04-23T06:46:29.883Z,5.75
2023-04-23T06:47:01.863Z,6.05
2023-04-23T06:47:34.893Z,5.68
2023-04-23T06:48:07.195Z,5.28
2023-04-23T06:48:39.064Z,5.30
2023-04-23T06:49:12.157Z,5.32
2023-04-23T06:49:44.040Z,5.13
2023-04-23T06:50:16.109Z,5.50
2023-04-23T06:50:49.177Z,5.70
2023-04-23T06:51:21.244Z,5.13
2023-04-23T06:51:53.093Z,5.60
2023-04-23T06:52:26.249Z,5.68
2023-04-23T06:52:58.162Z,4.30
2023-04-23T06:53:30.270Z,5.25
2023-04-23T06:54:03.125Z,4.88
2023-04-23T06:54:35.038Z,4.88
2023-04-23T06:55:08.369Z,5.30
2023-04-23T06:55:41.197Z,4.95
2023-04-23T06:56:13.401Z,5.40
2023-04-23T06:56:45.235Z,5.20
2023-04-23T06:57:19.573Z,5.85
2023-04-23T06:57:51.496Z,5.15
2023-04-23T06:58:27.313Z,5.35
2023-04-23T06:59:00.147Z,5.28
2023-04-23T06:59:32.005Z,5.78
2023-04-23T07:00:06.486Z,5.22
2023-04-23T07:00:39.408Z,5.55
2023-04-23T07:01:11.525Z,4.50
2023-04-23T07:01:43.532Z,4.75
2023-04-23T07:02:16.428Z,5.07
2023-04-23T07:02:48.549Z,5.15
2023-04-23T07:03:20.576Z,4.85
2023-04-23T07:03:54.448Z,4.38
2023-04-23T07:04:26.824Z,5.13
2023-04-23T07:04:58.725Z,5.00
2023-04-23T07:05:31.608Z,4.78
2023-04-23T07:06:03.830Z,4.32
2023-04-23T07:06:36.401Z,4.50
2023-04-23T07:07:09.244Z,4.78
2023-04-23T07:07:43.546Z,5.07
2023-04-23T07:08:16.543Z,5.03
2023-04-23T07:08:48.730Z,5.22
2023-04-23T07:09:20.859Z,4.60
2023-04-23T07:09:53.754Z,5.50
2023-04-23T07:10:25.663Z,4.43
2023-04-23T07:10:57.666Z,5.05
2023-04-23T07:11:31.757Z,4.47
2023-04-23T07:12:03.924Z,4.75
2023-04-23T07:12:37.402Z,4.60
2023-04-23T07:13:10.331Z,5.18
2023-04-23T07:13:42.671Z,4.57
2023-04-23T07:14:15.486Z,5.50
2023-04-23T07:14:47.413Z,5.05
2023-04-23T07:15:19.326Z,5.25